Time;durP1;ratioP1;P1;durP2;ratioP2;P2;SDS_P1;SDS_P2;PMS_P1;PMS_P2;Temp;Humidity;BMP_temperature;BMP_pressure;BME280_temperature;BME280_humidity;BME280_pressure;Samples;Min_cycle;Max_cycle;Signal;HPM_P1;HPM_P2
2022/01/01 00:01:31;;;;;;;102.10;60.28;;;;;;;;;;5074863;28;20184;-70
2022/01/01 00:03:56;;;;;;;120.27;76.23;;;;;;;;;;5073108;28;20673;-70
2022/01/01 00:06:21;;;;;;;125.67;76.90;;;;;;;;;;5070573;28;20180;-71
2022/01/01 00:08:47;;;;;;;117.30;73.87;;;;;;;;;;5074869;28;20180;-68
2022/01/01 00:11:13;;;;;;;131.10;77.17;;;;;;;;;;5076315;28;20177;-69
2022/01/01 00:13:38;;;;;;;128.10;84.97;;;;;;;;;;5075473;28;20208;-68
2022/01/01 00:16:08;;;;;;;129.93;79.77;;;;;;;;;;5073594;28;20203;-68
2022/01/01 00:18:34;;;;;;;133.17;78.93;;;;;;;;;;5072951;28;20189;-68
2022/01/01 00:20:59;;;;;;;124.30;71.53;;;;;;;;;;5078688;28;20915;-68
2022/01/01 00:23:24;;;;;;;115.47;66.93;;;;;;;;;;5074757;28;20267;-68
2022/01/01 00:25:49;;;;;;;109.95;63.15;;;;;;;;;;5073318;28;20182;-68
2022/01/01 00:28:15;;;;;;;102.57;61.57;;;;;;;;;;5074046;28;20201;-68
2022/01/01 00:30:40;;;;;;;96.47;60.70;;;;;;;;;;5076411;28;20175;-69
2022/01/01 00:33:06;;;;;;;98.30;60.83;;;;;;;;;;5090141;28;20210;-70
2022/01/01 00:35:32;;;;;;;106.68;64.93;;;;;;;;;;5077380;28;20196;-69
2022/01/01 00:37:57;;;;;;;105.95;63.28;;;;;;;;;;5077970;28;20331;-68
2022/01/01 00:40:22;;;;;;;123.45;67.80;;;;;;;;;;5075044;28;20184;-68
2022/01/01 00:42:47;;;;;;;100.00;58.90;;;;;;;;;;5072957;28;20215;-68
2022/01/01 00:45:12;;;;;;;101.03;56.00;;;;;;;;;;5074668;28;20184;-68
2022/01/01 00:47:37;;;;;;;92.10;51.90;;;;;;;;;;5080229;28;20186;-68
2022/01/01 00:50:03;;;;;;;83.47;49.07;;;;;;;;;;5078527;28;20191;-68
2022/01/01 00:52:28;;;;;;;81.73;46.53;;;;;;;;;;5072729;28;20176;-69
2022/01/01 00:54:54;;;;;;;63.17;35.83;;;;;;;;;;5075420;28;20172;-68
2022/01/01 00:57:19;;;;;;;57.47;29.63;;;;;;;;;;5072160;28;20613;-68
2022/01/01 00:59:44;;;;;;;52.07;29.40;;;;;;;;;;5075045;28;20208;-68
2022/01/01 01:02:10;;;;;;;60.57;27.17;;;;;;;;;;5088827;28;20176;-68
2022/01/01 01:04:35;;;;;;;54.67;27.10;;;;;;;;;;5092843;28;20215;-68
2022/01/01 01:07:00;;;;;;;58.03;29.17;;;;;;;;;;5086726;28;20187;-69
2022/01/01 01:09:27;;;;;;;56.30;25.15;;;;;;;;;;5092153;28;20182;-69
2022/01/01 01:11:52;;;;;;;47.88;23.67;;;;;;;;;;5088798;28;20188;-69
2022/01/01 01:14:20;;;;;;;46.08;23.95;;;;;;;;;;5074064;28;20211;-68
2022/01/01 01:16:46;;;;;;;50.65;26.10;;;;;;;;;;5096828;28;20184;-69
2022/01/01 01:19:11;;;;;;;50.63;23.45;;;;;;;;;;5091662;28;20718;-68
2022/01/01 01:21:37;;;;;;;55.63;25.40;;;;;;;;;;5093132;28;20192;-69
2022/01/01 01:24:02;;;;;;;52.92;26.58;;;;;;;;;;5093859;28;20328;-68
2022/01/01 01:26:29;;;;;;;64.47;29.08;;;;;;;;;;5092635;28;20184;-69
2022/01/01 01:28:54;;;;;;;59.90;28.25;;;;;;;;;;5094509;28;20172;-69
2022/01/01 01:31:20;;;;;;;58.83;30.63;;;;;;;;;;5069496;28;20596;-69
2022/01/01 01:33:45;;;;;;;62.25;28.50;;;;;;;;;;5077364;28;20252;-68
2022/01/01 01:36:11;;;;;;;58.55;29.88;;;;;;;;;;5078783;28;21156;-69
2022/01/01 01:38:36;;;;;;;59.33;26.98;;;;;;;;;;5077044;28;20738;-69
2022/01/01 01:41:05;;;;;;;55.10;27.80;;;;;;;;;;5078225;28;20184;-69
2022/01/01 01:43:30;;;;;;;48.17;24.83;;;;;;;;;;5079543;28;20302;-69
2022/01/01 01:45:57;;;;;;;42.58;22.70;;;;;;;;;;5079391;28;20790;-69
2022/01/01 01:48:22;;;;;;;48.00;21.52;;;;;;;;;;5078835;28;20345;-69
2022/01/01 01:50:48;;;;;;;40.92;22.33;;;;;;;;;;5079431;28;20667;-68
2022/01/01 01:53:13;;;;;;;47.55;22.90;;;;;;;;;;5075960;28;20216;-69
2022/01/01 01:55:38;;;;;;;51.47;21.83;;;;;;;;;;5074947;28;20803;-68
2022/01/01 01:58:03;;;;;;;43.22;19.33;;;;;;;;;;5075961;28;20184;-69
2022/01/01 02:03:13;;;;;;;46.83;21.95;;;;;;;;;;5078629;28;20276;-69
2022/01/01 02:05:39;;;;;;;43.17;19.20;;;;;;;;;;5079618;28;20628;-69
2022/01/01 02:08:05;;;;;;;43.55;19.35;;;;;;;;;;5078564;28;20214;-69
2022/01/01 02:10:32;;;;;;;41.97;21.15;;;;;;;;;;5080575;28;20168;-68
2022/01/01 02:12:57;;;;;;;45.60;23.20;;;;;;;;;;5078146;28;20216;-69
2022/01/01 02:16:11;;;;;;;50.75;25.52;;;;;;;;;;5077247;28;20184;-70
2022/01/01 02:18:32;;;;;;;45.65;20.25;;;;;;;;;;5077578;28;20271;-70
2022/01/01 02:20:57;;;;;;;44.72;21.60;;;;;;;;;;5058763;28;20175;-70
2022/01/01 02:23:25;;;;;;;48.42;23.65;;;;;;;;;;5081245;28;20294;-70
2022/01/01 02:25:51;;;;;;;48.45;24.63;;;;;;;;;;5061994;28;20203;-70
2022/01/01 02:28:17;;;;;;;52.40;22.58;;;;;;;;;;5076835;28;20286;-69
2022/01/01 02:30:42;;;;;;;49.17;25.80;;;;;;;;;;5076852;28;20176;-69
2022/01/01 02:33:07;;;;;;;43.08;22.23;;;;;;;;;;5073226;28;20207;-69
2022/01/01 02:35:32;;;;;;;42.85;22.80;;;;;;;;;;5057507;28;20180;-69
2022/01/01 02:37:58;;;;;;;45.78;25.27;;;;;;;;;;5073541;28;20192;-69
2022/01/01 02:40:23;;;;;;;49.33;26.35;;;;;;;;;;5075867;28;20215;-70
2022/01/01 02:42:48;;;;;;;57.55;26.63;;;;;;;;;;5076812;28;20207;-70
2022/01/01 02:45:14;;;;;;;48.05;25.10;;;;;;;;;;5077089;28;20176;-70
2022/01/01 02:47:40;;;;;;;51.80;25.50;;;;;;;;;;5078131;28;20286;-68
2022/01/01 02:50:06;;;;;;;43.58;25.17;;;;;;;;;;5060264;28;20206;-68
2022/01/01 02:52:31;;;;;;;53.05;26.73;;;;;;;;;;5072155;28;20215;-68
2022/01/01 02:54:56;;;;;;;46.22;26.40;;;;;;;;;;5060121;28;20188;-68
2022/01/01 02:57:22;;;;;;;61.92;29.05;;;;;;;;;;5074666;28;21977;-68
2022/01/01 02:59:48;;;;;;;47.83;28.10;;;;;;;;;;5076453;28;20288;-67
2022/01/01 03:02:13;;;;;;;47.58;27.45;;;;;;;;;;5076047;28;20649;-68
2022/01/01 03:04:38;;;;;;;55.03;26.80;;;;;;;;;;5076763;28;20740;-69
2022/01/01 03:07:03;;;;;;;57.30;26.73;;;;;;;;;;5076635;28;20185;-68
2022/01/01 03:09:34;;;;;;;50.90;26.75;;;;;;;;;;5074912;28;20421;-68
2022/01/01 03:12:10;;;;;;;49.38;26.95;;;;;;;;;;5076153;28;20676;-69
2022/01/01 03:14:36;;;;;;;43.80;26.20;;;;;;;;;;5076095;28;20203;-68
2022/01/01 03:17:02;;;;;;;45.40;24.75;;;;;;;;;;5075225;28;20661;-68
2022/01/01 03:19:27;;;;;;;54.50;26.88;;;;;;;;;;5075415;28;20180;-70
2022/01/01 03:21:52;;;;;;;44.97;23.48;;;;;;;;;;5077562;28;20245;-68
2022/01/01 03:24:18;;;;;;;49.60;23.52;;;;;;;;;;5074069;28;20265;-68
2022/01/01 03:26:43;;;;;;;46.55;22.55;;;;;;;;;;5056369;28;20268;-68
2022/01/01 03:29:08;;;;;;;52.88;23.15;;;;;;;;;;5075672;28;20202;-67
2022/01/01 03:31:34;;;;;;;40.22;22.73;;;;;;;;;;5073208;28;20172;-70
2022/01/01 03:33:59;;;;;;;42.28;23.95;;;;;;;;;;5075222;28;20277;-69
2022/01/01 03:36:25;;;;;;;47.45;24.63;;;;;;;;;;5074181;28;20237;-68
2022/01/01 03:38:50;;;;;;;44.10;23.63;;;;;;;;;;5075415;28;20197;-68
2022/01/01 03:41:15;;;;;;;45.67;22.90;;;;;;;;;;5075584;28;20192;-68
2022/01/01 03:43:40;;;;;;;45.40;22.90;;;;;;;;;;5055415;28;20287;-67
2022/01/01 03:46:05;;;;;;;40.53;23.05;;;;;;;;;;5073503;28;20814;-68
2022/01/01 03:48:31;;;;;;;36.78;20.52;;;;;;;;;;5074354;28;20184;-67
2022/01/01 03:50:56;;;;;;;37.25;21.63;;;;;;;;;;5076338;28;20186;-67
2022/01/01 03:53:22;;;;;;;46.63;22.10;;;;;;;;;;5075004;28;20207;-69
2022/01/01 03:55:47;;;;;;;37.60;21.58;;;;;;;;;;5072801;28;20194;-68
2022/01/01 03:58:12;;;;;;;47.30;23.15;;;;;;;;;;5073029;28;20274;-68
2022/01/01 04:00:39;;;;;;;42.45;21.30;;;;;;;;;;5071246;28;20188;-69
2022/01/01 04:03:09;;;;;;;42.05;21.85;;;;;;;;;;5073569;28;21514;-70
2022/01/01 04:05:35;;;;;;;37.72;21.48;;;;;;;;;;5076932;28;20344;-69
2022/01/01 04:08:00;;;;;;;39.65;20.40;;;;;;;;;;5072189;28;20255;-69
2022/01/01 04:10:26;;;;;;;39.38;22.05;;;;;;;;;;5075601;28;20833;-69
2022/01/01 04:12:51;;;;;;;37.45;21.60;;;;;;;;;;5074372;28;20634;-69
2022/01/01 04:15:16;;;;;;;45.00;21.43;;;;;;;;;;5072282;28;20177;-69
2022/01/01 04:17:41;;;;;;;42.72;21.33;;;;;;;;;;5074888;28;20428;-69
2022/01/01 04:20:07;;;;;;;35.60;21.48;;;;;;;;;;5073943;28;20180;-70
2022/01/01 04:22:32;;;;;;;43.33;22.80;;;;;;;;;;5052853;28;21000;-68
2022/01/01 04:24:57;;;;;;;42.67;24.95;;;;;;;;;;5071717;28;20681;-67
2022/01/01 04:27:22;;;;;;;41.33;23.67;;;;;;;;;;5072876;28;20230;-69
2022/01/01 04:29:48;;;;;;;39.85;23.63;;;;;;;;;;5072325;28;20184;-69
2022/01/01 04:32:14;;;;;;;42.70;24.95;;;;;;;;;;5074292;28;20532;-69
2022/01/01 04:34:39;;;;;;;50.05;25.48;;;;;;;;;;5074135;28;20545;-68
2022/01/01 04:37:11;;;;;;;41.80;23.63;;;;;;;;;;5073377;28;20189;-69
2022/01/01 04:39:37;;;;;;;39.40;23.10;;;;;;;;;;5072958;28;20258;-70
2022/01/01 04:42:02;;;;;;;53.95;23.95;;;;;;;;;;5070579;28;20208;-69
2022/01/01 04:44:27;;;;;;;44.15;22.83;;;;;;;;;;5075846;28;20302;-69
2022/01/01 04:46:52;;;;;;;42.25;23.35;;;;;;;;;;5077820;28;20175;-70
2022/01/01 04:49:17;;;;;;;43.78;21.70;;;;;;;;;;5076927;28;20187;-70
2022/01/01 04:51:43;;;;;;;47.72;22.08;;;;;;;;;;5078367;28;20176;-70
2022/01/01 04:54:15;;;;;;;40.83;21.02;;;;;;;;;;5076693;28;20248;-70
2022/01/01 04:56:43;;;;;;;43.70;21.48;;;;;;;;;;5077785;28;20828;-70
2022/01/01 04:59:09;;;;;;;39.17;20.75;;;;;;;;;;5077494;28;20274;-70
2022/01/01 05:01:34;;;;;;;41.67;21.48;;;;;;;;;;5078038;28;20184;-69
2022/01/01 05:04:00;;;;;;;39.85;20.08;;;;;;;;;;5080972;28;20239;-71
2022/01/01 05:06:25;;;;;;;30.60;18.48;;;;;;;;;;5077714;28;20187;-68
2022/01/01 05:08:50;;;;;;;41.33;20.30;;;;;;;;;;5078229;28;20179;-70
2022/01/01 05:11:16;;;;;;;40.72;20.10;;;;;;;;;;5075435;28;20515;-70
2022/01/01 05:13:41;;;;;;;31.98;18.55;;;;;;;;;;5059927;28;20490;-70
2022/01/01 05:16:06;;;;;;;31.75;18.10;;;;;;;;;;5076631;28;20211;-70
2022/01/01 05:18:36;;;;;;;34.40;18.20;;;;;;;;;;5061256;28;20180;-69
2022/01/01 05:21:01;;;;;;;37.85;19.83;;;;;;;;;;5076485;28;20230;-69
2022/01/01 05:23:26;;;;;;;33.75;16.75;;;;;;;;;;5074154;28;20756;-69
2022/01/01 05:25:51;;;;;;;33.33;17.60;;;;;;;;;;5077259;28;20224;-70
2022/01/01 05:28:16;;;;;;;28.70;17.47;;;;;;;;;;5075565;28;20174;-70
2022/01/01 05:30:42;;;;;;;34.05;18.23;;;;;;;;;;5077887;28;21086;-71
2022/01/01 05:33:07;;;;;;;29.88;16.75;;;;;;;;;;5075404;28;20188;-69
2022/01/01 05:35:32;;;;;;;29.20;16.45;;;;;;;;;;5078363;28;20179;-69
2022/01/01 05:37:57;;;;;;;24.35;15.52;;;;;;;;;;5076780;28;20192;-70
2022/01/01 05:40:23;;;;;;;29.75;15.98;;;;;;;;;;5077398;28;20644;-70
2022/01/01 05:42:49;;;;;;;34.53;17.10;;;;;;;;;;5072912;28;20204;-68
2022/01/01 05:45:14;;;;;;;28.48;15.88;;;;;;;;;;5076613;28;20696;-69
2022/01/01 05:47:39;;;;;;;27.98;15.07;;;;;;;;;;5074206;28;20207;-68
2022/01/01 05:50:04;;;;;;;29.73;15.05;;;;;;;;;;5080510;28;20291;-68
2022/01/01 05:52:29;;;;;;;27.85;15.50;;;;;;;;;;5076883;28;20320;-69
2022/01/01 05:54:55;;;;;;;30.25;15.35;;;;;;;;;;5075417;28;20199;-68
2022/01/01 05:57:20;;;;;;;25.73;15.93;;;;;;;;;;5076700;28;20180;-68
2022/01/01 05:59:45;;;;;;;22.25;14.43;;;;;;;;;;5074929;28;20539;-69
2022/01/01 06:02:10;;;;;;;31.30;15.13;;;;;;;;;;5075883;28;20184;-68
2022/01/01 06:04:36;;;;;;;26.88;15.38;;;;;;;;;;5102314;22;20231;-70
2022/01/01 06:07:02;;;;;;;26.08;14.00;;;;;;;;;;5090419;27;20203;-67
2022/01/01 06:09:27;;;;;;;25.52;13.82;;;;;;;;;;5094466;27;20176;-68
2022/01/01 06:11:53;;;;;;;26.15;13.40;;;;;;;;;;5090961;27;20187;-69
2022/01/01 06:14:20;;;;;;;26.45;12.65;;;;;;;;;;5078953;27;20201;-69
2022/01/01 06:16:46;;;;;;;24.85;12.73;;;;;;;;;;5077751;28;20199;-69
2022/01/01 06:19:11;;;;;;;21.63;12.73;;;;;;;;;;5076711;28;20193;-69
2022/01/01 06:21:36;;;;;;;27.73;13.18;;;;;;;;;;5076155;28;20183;-68
2022/01/01 06:24:02;;;;;;;27.83;12.77;;;;;;;;;;5074257;28;20208;-69
2022/01/01 06:26:27;;;;;;;20.42;12.27;;;;;;;;;;5074260;28;20181;-69
2022/01/01 06:28:52;;;;;;;28.65;14.30;;;;;;;;;;5074366;28;20183;-69
2022/01/01 06:31:17;;;;;;;26.98;13.30;;;;;;;;;;5076945;28;20264;-70
2022/01/01 06:33:42;;;;;;;25.38;12.98;;;;;;;;;;5076113;28;20279;-69
2022/01/01 06:36:12;;;;;;;24.05;13.18;;;;;;;;;;5075443;28;20263;-69
2022/01/01 06:38:37;;;;;;;26.65;14.57;;;;;;;;;;5074648;28;20199;-70
2022/01/01 06:41:02;;;;;;;25.55;14.73;;;;;;;;;;5075697;28;20264;-69
2022/01/01 06:43:27;;;;;;;23.88;14.38;;;;;;;;;;5072134;28;20208;-69
2022/01/01 06:45:52;;;;;;;24.65;14.77;;;;;;;;;;5082121;28;20176;-69
2022/01/01 06:48:18;;;;;;;29.05;14.80;;;;;;;;;;5076490;28;20176;-69
2022/01/01 06:50:43;;;;;;;26.48;13.00;;;;;;;;;;5076249;28;20537;-69
2022/01/01 06:53:09;;;;;;;29.42;14.68;;;;;;;;;;5073530;28;20195;-69
2022/01/01 06:55:34;;;;;;;24.35;13.88;;;;;;;;;;5074917;28;20187;-69
2022/01/01 06:57:59;;;;;;;28.55;12.63;;;;;;;;;;5077092;28;20172;-68
2022/01/01 07:00:24;;;;;;;23.77;12.77;;;;;;;;;;5075362;28;20180;-69
2022/01/01 07:02:49;;;;;;;24.17;12.40;;;;;;;;;;5076282;28;20215;-68
2022/01/01 07:05:15;;;;;;;20.77;11.40;;;;;;;;;;5074659;28;20213;-69
2022/01/01 07:07:40;;;;;;;20.77;11.95;;;;;;;;;;5059451;28;20252;-68
2022/01/01 07:10:07;;;;;;;21.65;11.65;;;;;;;;;;5074219;28;20168;-68
2022/01/01 07:12:33;;;;;;;20.25;10.25;;;;;;;;;;5074303;28;20187;-68
2022/01/01 07:14:58;;;;;;;21.65;11.05;;;;;;;;;;5073803;28;20505;-69
2022/01/01 07:17:23;;;;;;;19.15;9.82;;;;;;;;;;5075688;28;20180;-68
2022/01/01 07:19:49;;;;;;;19.63;10.05;;;;;;;;;;5074864;28;20571;-68
2022/01/01 07:22:14;;;;;;;17.38;8.73;;;;;;;;;;5058377;28;20187;-69
2022/01/01 07:24:39;;;;;;;20.38;8.88;;;;;;;;;;5053978;28;20247;-68
2022/01/01 07:27:05;;;;;;;18.02;9.20;;;;;;;;;;5073659;28;20201;-68
2022/01/01 07:29:31;;;;;;;13.65;7.85;;;;;;;;;;5072366;28;20177;-69
2022/01/01 07:31:56;;;;;;;17.77;8.38;;;;;;;;;;5074776;28;20260;-69
2022/01/01 07:34:21;;;;;;;16.63;8.88;;;;;;;;;;5071606;28;20302;-69
2022/01/01 07:36:47;;;;;;;19.55;9.45;;;;;;;;;;5075664;28;20716;-69
2022/01/01 07:39:12;;;;;;;17.10;9.50;;;;;;;;;;5074526;28;20188;-67
2022/01/01 07:41:37;;;;;;;16.13;8.13;;;;;;;;;;5074192;28;20701;-69
2022/01/01 07:44:03;;;;;;;18.05;7.82;;;;;;;;;;5075019;28;20208;-71
2022/01/01 07:46:28;;;;;;;15.35;8.32;;;;;;;;;;5072831;28;20362;-69
2022/01/01 07:48:53;;;;;;;17.20;7.75;;;;;;;;;;5075737;28;20207;-70
2022/01/01 07:51:18;;;;;;;16.77;7.43;;;;;;;;;;5074226;28;20234;-68
2022/01/01 07:53:44;;;;;;;16.98;8.13;;;;;;;;;;5073809;28;20705;-69
2022/01/01 07:56:09;;;;;;;17.25;8.63;;;;;;;;;;5058848;28;20379;-68
2022/01/01 07:58:34;;;;;;;15.30;7.38;;;;;;;;;;5071376;28;20188;-68
2022/01/01 08:01:00;;;;;;;18.92;8.93;;;;;;;;;;5072404;28;20220;-70
2022/01/01 08:03:25;;;;;;;17.23;8.23;;;;;;;;;;5074394;28;21506;-68
2022/01/01 08:05:50;;;;;;;12.15;7.43;;;;;;;;;;5075212;28;20173;-67
2022/01/01 08:08:15;;;;;;;14.10;7.88;;;;;;;;;;5072886;28;20184;-68
2022/01/01 08:10:40;;;;;;;13.88;7.60;;;;;;;;;;5075131;28;20221;-69
2022/01/01 08:13:06;;;;;;;11.35;7.35;;;;;;;;;;5075590;28;20624;-69
2022/01/01 08:15:32;;;;;;;14.88;7.38;;;;;;;;;;5075872;28;20724;-68
2022/01/01 08:17:57;;;;;;;10.82;5.82;;;;;;;;;;5073596;28;20187;-68
2022/01/01 08:20:22;;;;;;;11.33;7.20;;;;;;;;;;5071817;28;20669;-69
2022/01/01 08:22:48;;;;;;;9.18;5.65;;;;;;;;;;5075196;28;20416;-68
2022/01/01 08:25:16;;;;;;;18.27;6.47;;;;;;;;;;5056488;28;20671;-68
2022/01/01 08:27:41;;;;;;;12.45;6.05;;;;;;;;;;5071889;28;20211;-68
2022/01/01 08:30:06;;;;;;;11.48;6.45;;;;;;;;;;5073785;28;20254;-68
2022/01/01 08:32:32;;;;;;;11.80;6.20;;;;;;;;;;5072162;28;20195;-68
2022/01/01 08:34:57;;;;;;;14.73;7.50;;;;;;;;;;5088515;28;20199;-71
2022/01/01 08:37:22;;;;;;;13.73;6.85;;;;;;;;;;5089706;28;20219;-69
2022/01/01 08:39:47;;;;;;;15.07;6.47;;;;;;;;;;5090633;28;20233;-68
2022/01/01 08:42:13;;;;;;;13.25;6.55;;;;;;;;;;5087971;28;20431;-68
2022/01/01 08:44:38;;;;;;;17.25;7.97;;;;;;;;;;5090454;28;20568;-68
2022/01/01 08:47:03;;;;;;;13.60;6.05;;;;;;;;;;5085424;28;20181;-68
2022/01/01 08:49:28;;;;;;;8.98;6.15;;;;;;;;;;5088827;28;20248;-68
2022/01/01 08:51:55;;;;;;;13.80;6.60;;;;;;;;;;5078813;28;20197;-69
2022/01/01 08:54:20;;;;;;;11.45;6.68;;;;;;;;;;5083066;28;20672;-68
2022/01/01 08:56:45;;;;;;;12.40;6.35;;;;;;;;;;5075275;28;20281;-68
2022/01/01 08:59:11;;;;;;;13.90;7.03;;;;;;;;;;5072900;28;20180;-70
2022/01/01 09:01:36;;;;;;;15.48;7.95;;;;;;;;;;5074889;28;20678;-70
2022/01/01 09:04:02;;;;;;;10.07;6.45;;;;;;;;;;5058482;28;20684;-70
2022/01/01 09:06:27;;;;;;;14.60;6.60;;;;;;;;;;5066685;28;20599;-70
2022/01/01 09:08:52;;;;;;;11.70;6.25;;;;;;;;;;5073798;28;20177;-71
2022/01/01 09:11:17;;;;;;;13.20;7.97;;;;;;;;;;5075702;28;20188;-70
2022/01/01 09:13:43;;;;;;;12.00;6.97;;;;;;;;;;5073788;28;20291;-70
2022/01/01 09:16:12;;;;;;;10.75;6.50;;;;;;;;;;5075512;28;20270;-70
2022/01/01 09:18:38;;;;;;;14.25;7.45;;;;;;;;;;5074040;28;20202;-70
2022/01/01 09:21:03;;;;;;;13.40;7.65;;;;;;;;;;5057986;28;22064;-71
2022/01/01 09:23:28;;;;;;;10.07;7.53;;;;;;;;;;5056081;28;20208;-70
2022/01/01 09:25:54;;;;;;;14.27;7.85;;;;;;;;;;5074215;28;20192;-69
2022/01/01 09:28:19;;;;;;;15.68;8.48;;;;;;;;;;5056239;28;20245;-70
2022/01/01 09:30:44;;;;;;;13.85;7.22;;;;;;;;;;5075478;28;20226;-70
2022/01/01 09:33:12;;;;;;;11.77;8.25;;;;;;;;;;5077835;28;20203;-69
2022/01/01 09:35:37;;;;;;;12.52;7.97;;;;;;;;;;5077691;28;20180;-70
2022/01/01 09:38:02;;;;;;;19.48;10.05;;;;;;;;;;5077273;28;20200;-69
2022/01/01 09:40:28;;;;;;;10.35;7.75;;;;;;;;;;5073596;28;20947;-69
2022/01/01 09:42:54;;;;;;;12.90;7.53;;;;;;;;;;5076720;28;20184;-68
2022/01/01 09:45:20;;;;;;;14.02;8.63;;;;;;;;;;5060529;28;20214;-68
2022/01/01 09:47:45;;;;;;;13.18;8.70;;;;;;;;;;5080152;28;20182;-68
2022/01/01 09:50:11;;;;;;;13.13;8.93;;;;;;;;;;5082824;28;20185;-68
2022/01/01 09:52:36;;;;;;;15.18;8.85;;;;;;;;;;5077911;28;20275;-68
2022/01/01 09:55:02;;;;;;;14.13;9.40;;;;;;;;;;5077186;28;20211;-68
2022/01/01 09:57:27;;;;;;;16.63;9.40;;;;;;;;;;5078564;28;20191;-68
2022/01/01 09:59:52;;;;;;;16.05;9.02;;;;;;;;;;5077715;28;20202;-69
2022/01/01 10:02:18;;;;;;;15.75;9.38;;;;;;;;;;5078988;28;20614;-68
2022/01/01 10:04:50;;;;;;;13.13;10.00;;;;;;;;;;5080372;28;20208;-68
2022/01/01 10:07:16;;;;;;;15.45;9.68;;;;;;;;;;5079299;28;20834;-69
2022/01/01 10:09:42;;;;;;;16.20;9.70;;;;;;;;;;5090021;28;20164;-68
2022/01/01 10:12:10;;;;;;;14.02;10.57;;;;;;;;;;5087495;28;20698;-69
2022/01/01 10:14:45;;;;;;;16.23;10.63;;;;;;;;;;5092061;28;20732;-68
2022/01/01 10:17:21;;;;;;;16.58;10.02;;;;;;;;;;5088713;28;20176;-70
2022/01/01 10:19:47;;;;;;;17.65;11.50;;;;;;;;;;5092471;28;20725;-69
2022/01/01 10:22:16;;;;;;;16.42;11.35;;;;;;;;;;5092529;28;20560;-68
2022/01/01 10:30:19;;;;;;;16.25;10.50;;;;;;;;;;5086053;28;20184;-68
2022/01/01 10:33:00;;;;;;;17.17;11.15;;;;;;;;;;5081451;28;20688;-69
2022/01/01 10:35:25;;;;;;;14.73;10.15;;;;;;;;;;5071066;28;20286;-69
2022/01/01 10:37:50;;;;;;;13.48;11.13;;;;;;;;;;5084881;28;20271;-68
2022/01/01 10:40:23;;;;;;;17.50;10.98;;;;;;;;;;5078911;28;20188;-67
2022/01/01 10:42:50;;;;;;;14.27;10.85;;;;;;;;;;5077370;28;20175;-68
2022/01/01 10:45:27;;;;;;;20.10;11.68;;;;;;;;;;5057285;28;20294;-68
2022/01/01 10:48:03;;;;;;;16.65;10.75;;;;;;;;;;5077781;28;20537;-68
2022/01/01 10:50:31;;;;;;;15.98;11.52;;;;;;;;;;5074964;28;20571;-67
2022/01/01 10:53:08;;;;;;;14.90;10.73;;;;;;;;;;5075759;28;20608;-68
2022/01/01 10:55:33;;;;;;;11.80;9.73;;;;;;;;;;5074439;28;20191;-69
2022/01/01 10:58:00;;;;;;;14.60;10.13;;;;;;;;;;5076132;28;20669;-68
2022/01/01 11:00:26;;;;;;;14.75;10.75;;;;;;;;;;5076141;28;20188;-68
2022/01/01 11:02:52;;;;;;;15.82;11.57;;;;;;;;;;5075447;28;20211;-68
2022/01/01 11:05:27;;;;;;;13.60;9.68;;;;;;;;;;5077127;28;20210;-67
2022/01/01 11:07:53;;;;;;;12.65;9.73;;;;;;;;;;5076065;28;20720;-67
2022/01/01 11:10:19;;;;;;;13.57;10.43;;;;;;;;;;5058833;28;20184;-68
2022/01/01 11:12:45;;;;;;;14.45;9.30;;;;;;;;;;5076531;28;20212;-68
2022/01/01 11:15:11;;;;;;;17.15;11.02;;;;;;;;;;5076092;28;20190;-67
2022/01/01 11:17:37;;;;;;;12.20;9.93;;;;;;;;;;5076559;28;20434;-67
2022/01/01 11:20:03;;;;;;;16.33;10.27;;;;;;;;;;5077892;28;20189;-67
2022/01/01 11:22:28;;;;;;;13.60;10.00;;;;;;;;;;5058614;28;20246;-69
2022/01/01 11:24:54;;;;;;;12.63;9.93;;;;;;;;;;5076072;28;20264;-67
2022/01/01 11:27:19;;;;;;;16.65;10.38;;;;;;;;;;5077095;28;20662;-68
2022/01/01 11:29:52;;;;;;;10.85;9.07;;;;;;;;;;5076158;28;20568;-68
2022/01/01 11:32:20;;;;;;;17.17;10.80;;;;;;;;;;5076731;28;20241;-67
2022/01/01 11:34:46;;;;;;;11.30;9.02;;;;;;;;;;5083134;28;20235;-67
2022/01/01 11:37:14;;;;;;;12.48;9.57;;;;;;;;;;5094891;28;20234;-68
2022/01/01 11:39:40;;;;;;;12.60;9.63;;;;;;;;;;5080872;28;20177;-69
2022/01/01 11:42:10;;;;;;;15.90;9.63;;;;;;;;;;5060161;28;20180;-67
2022/01/01 11:44:35;;;;;;;14.60;10.07;;;;;;;;;;5075131;28;20329;-68
2022/01/01 11:47:03;;;;;;;12.15;9.20;;;;;;;;;;5076387;28;20187;-67
2022/01/01 11:49:29;;;;;;;12.57;8.57;;;;;;;;;;5088413;28;20666;-68
2022/01/01 11:51:55;;;;;;;12.15;8.63;;;;;;;;;;5090124;28;20168;-68
2022/01/01 11:54:20;;;;;;;12.63;9.32;;;;;;;;;;5089885;28;20291;-68
2022/01/01 11:56:45;;;;;;;13.05;9.65;;;;;;;;;;5080337;28;20272;-67
2022/01/01 11:59:16;;;;;;;13.68;9.70;;;;;;;;;;5075343;28;20192;-68
2022/01/01 12:01:42;;;;;;;14.13;9.68;;;;;;;;;;5057132;28;20487;-68
2022/01/01 12:04:21;;;;;;;12.25;9.73;;;;;;;;;;5077978;28;20207;-69
2022/01/01 12:06:46;;;;;;;13.85;9.70;;;;;;;;;;5074325;28;20208;-68
2022/01/01 12:09:11;;;;;;;16.52;10.65;;;;;;;;;;5070818;28;20187;-67
2022/01/01 12:11:36;;;;;;;11.68;9.15;;;;;;;;;;5074405;28;20199;-66
2022/01/01 12:14:02;;;;;;;15.32;9.10;;;;;;;;;;5073896;28;20200;-70
2022/01/01 12:16:28;;;;;;;14.45;9.27;;;;;;;;;;5076722;28;20179;-67
2022/01/01 12:19:01;;;;;;;16.55;8.98;;;;;;;;;;5074318;28;20556;-68
2022/01/01 12:21:27;;;;;;;15.35;9.90;;;;;;;;;;5075903;28;20179;-67
2022/01/01 12:23:57;;;;;;;13.18;9.15;;;;;;;;;;5057500;28;20204;-68
2022/01/01 12:26:30;;;;;;;11.32;9.45;;;;;;;;;;5075444;28;20187;-68
2022/01/01 12:29:00;;;;;;;10.27;8.43;;;;;;;;;;5074449;28;20774;-67
2022/01/01 12:31:25;;;;;;;11.95;8.70;;;;;;;;;;5076635;28;20654;-68
2022/01/01 12:33:52;;;;;;;14.97;9.57;;;;;;;;;;5074160;28;20211;-67
2022/01/01 12:36:21;;;;;;;12.93;8.10;;;;;;;;;;5057344;28;20484;-67
2022/01/01 12:39:07;;;;;;;10.77;8.55;;;;;;;;;;5072989;28;20237;-68
2022/01/01 12:41:35;;;;;;;12.88;8.48;;;;;;;;;;5067499;28;20271;-70
2022/01/01 12:44:02;;;;;;;11.23;8.27;;;;;;;;;;5073671;28;20306;-68
2022/01/01 12:46:29;;;;;;;10.80;8.30;;;;;;;;;;5073987;28;20653;-70
2022/01/01 12:48:56;;;;;;;9.45;7.75;;;;;;;;;;5071927;28;23216;-71
2022/01/01 12:51:23;;;;;;;12.50;8.85;;;;;;;;;;5071078;28;20563;-70
2022/01/01 12:53:52;;;;;;;10.68;7.43;;;;;;;;;;5071989;28;20306;-69
2022/01/01 12:56:18;;;;;;;11.00;7.72;;;;;;;;;;5073930;28;20180;-70
2022/01/01 12:58:45;;;;;;;10.63;7.65;;;;;;;;;;5078232;28;20203;-69
2022/01/01 13:01:12;;;;;;;15.32;8.75;;;;;;;;;;5082858;28;20195;-69
2022/01/01 13:03:37;;;;;;;10.05;6.85;;;;;;;;;;5072128;28;20294;-69
2022/01/01 13:06:02;;;;;;;8.95;6.78;;;;;;;;;;5079992;28;20176;-70
2022/01/01 13:08:29;;;;;;;8.52;6.40;;;;;;;;;;5077832;28;20212;-69
2022/01/01 13:10:54;;;;;;;12.02;7.05;;;;;;;;;;5076769;28;20259;-69
2022/01/01 13:13:19;;;;;;;9.65;6.70;;;;;;;;;;5078811;28;20200;-69
2022/01/01 13:15:44;;;;;;;9.23;7.18;;;;;;;;;;5078016;28;20490;-70
2022/01/01 13:18:09;;;;;;;11.45;7.00;;;;;;;;;;5079757;28;20172;-69
2022/01/01 13:20:35;;;;;;;6.93;6.22;;;;;;;;;;5078540;28;20178;-70
2022/01/01 13:23:04;;;;;;;9.85;6.97;;;;;;;;;;5077839;28;20344;-69
2022/01/01 13:25:29;;;;;;;8.48;6.53;;;;;;;;;;5059756;28;21702;-69
2022/01/01 13:27:54;;;;;;;7.33;5.67;;;;;;;;;;5079272;28;20187;-68
2022/01/01 13:30:22;;;;;;;7.25;5.97;;;;;;;;;;5077924;28;20990;-69
2022/01/01 13:32:48;;;;;;;9.00;5.70;;;;;;;;;;5078287;28;20516;-69
2022/01/01 13:35:22;;;;;;;7.30;5.63;;;;;;;;;;5079936;28;20230;-70
2022/01/01 13:37:49;;;;;;;7.55;5.70;;;;;;;;;;5072700;28;20180;-68
2022/01/01 13:40:14;;;;;;;7.63;6.40;;;;;;;;;;5077233;28;20176;-68
2022/01/01 13:42:39;;;;;;;7.75;6.15;;;;;;;;;;5070188;28;20245;-69
2022/01/01 13:45:05;;;;;;;7.53;5.72;;;;;;;;;;5061611;28;20692;-68
2022/01/01 13:47:32;;;;;;;7.30;5.30;;;;;;;;;;5078792;28;20172;-69
2022/01/01 13:50:00;;;;;;;6.25;5.28;;;;;;;;;;5081804;28;20461;-67
2022/01/01 13:52:26;;;;;;;7.88;5.47;;;;;;;;;;5058802;28;20188;-70
2022/01/01 13:54:55;;;;;;;6.10;4.78;;;;;;;;;;5059980;28;20238;-67
2022/01/01 13:57:20;;;;;;;7.93;5.00;;;;;;;;;;5074038;28;20275;-67
2022/01/01 13:59:51;;;;;;;7.80;5.50;;;;;;;;;;5076510;28;20680;-67
2022/01/01 14:02:16;;;;;;;9.32;6.25;;;;;;;;;;5079019;28;20206;-67
2022/01/01 14:04:44;;;;;;;11.27;6.55;;;;;;;;;;5079272;28;20808;-68
2022/01/01 14:07:13;;;;;;;9.43;6.97;;;;;;;;;;5077065;28;20171;-68
2022/01/01 14:09:57;;;;;;;9.52;6.50;;;;;;;;;;5077944;28;20615;-69
2022/01/01 14:12:23;;;;;;;8.55;6.13;;;;;;;;;;5075695;28;20191;-68
2022/01/01 14:14:49;;;;;;;9.48;5.80;;;;;;;;;;5078111;28;20204;-69
2022/01/01 14:17:14;;;;;;;11.32;6.50;;;;;;;;;;5076819;28;20188;-71
2022/01/01 14:19:39;;;;;;;11.57;6.90;;;;;;;;;;5078983;28;20183;-69
2022/01/01 14:22:09;;;;;;;10.38;6.70;;;;;;;;;;5073883;28;21015;-70
2022/01/01 14:24:34;;;;;;;8.93;5.97;;;;;;;;;;5078336;28;20199;-67
2022/01/01 14:27:05;;;;;;;14.35;8.32;;;;;;;;;;5084986;28;20477;-67